sensor_id;sensor_type;location;lat;lon;timestamp;pressure;altitude;pressure_sealevel;temperature;humidity
71504;BME280;59323;50.874;7.028;2023-02-03T00:00:12;102323.94;;;8.44;92.72
71504;BME280;59323;50.874;7.028;2023-02-03T00:02:38;102317.72;;;8.43;92.68
71504;BME280;59323;50.874;7.028;2023-02-03T00:05:04;102315.94;;;8.39;93.05
71504;BME280;59323;50.874;7.028;2023-02-03T00:07:29;102298.09;;;8.38;93.05
71504;BME280;59323;50.874;7.028;2023-02-03T00:09:55;102298.88;;;8.38;93.14
71504;BME280;59323;50.874;7.028;2023-02-03T00:12:21;102293.66;;;8.42;92.58
71504;BME280;59323;50.874;7.028;2023-02-03T00:14:47;102284.09;;;8.44;92.47
71504;BME280;59323;50.874;7.028;2023-02-03T00:17:12;102285.03;;;8.40;92.56
71504;BME280;59323;50.874;7.028;2023-02-03T00:19:39;102279.44;;;8.36;93.21
71504;BME280;59323;50.874;7.028;2023-02-03T00:22:04;102282.94;;;8.37;92.79
71504;BME280;59323;50.874;7.028;2023-02-03T00:24:29;102272.44;;;8.35;92.88
71504;BME280;59323;50.874;7.028;2023-02-03T00:26:55;102266.22;;;8.35;92.95
71504;BME280;59323;50.874;7.028;2023-02-03T00:29:20;102265.59;;;8.38;92.57
71504;BME280;59323;50.874;7.028;2023-02-03T00:31:49;102272.13;;;8.37;92.74
71504;BME280;59323;50.874;7.028;2023-02-03T00:34:15;102251.56;;;8.36;92.75
71504;BME280;59323;50.874;7.028;2023-02-03T00:36:40;102249.66;;;8.36;92.46
71504;BME280;59323;50.874;7.028;2023-02-03T00:39:06;102238.50;;;8.38;92.58
71504;BME280;59323;50.874;7.028;2023-02-03T00:41:31;102240.72;;;8.36;92.06
71504;BME280;59323;50.874;7.028;2023-02-03T00:43:56;102245.81;;;8.37;92.63
71504;BME280;59323;50.874;7.028;2023-02-03T00:46:22;102249.03;;;8.39;92.27
71504;BME280;59323;50.874;7.028;2023-02-03T00:48:47;102247.13;;;8.40;92.02
71504;BME280;59323;50.874;7.028;2023-02-03T00:51:12;102242.97;;;8.42;92.15
71504;BME280;59323;50.874;7.028;2023-02-03T00:53:38;102257.00;;;8.44;91.28
71504;BME280;59323;50.874;7.028;2023-02-03T00:56:03;102247.91;;;8.40;91.54
71504;BME280;59323;50.874;7.028;2023-02-03T00:58:36;102244.09;;;8.41;91.19
71504;BME280;59323;50.874;7.028;2023-02-03T01:01:01;102225.94;;;8.42;91.28
71504;BME280;59323;50.874;7.028;2023-02-03T01:03:27;102225.94;;;8.42;91.22
71504;BME280;59323;50.874;7.028;2023-02-03T01:05:52;102239.97;;;8.44;91.17
71504;BME280;59323;50.874;7.028;2023-02-03T01:08:17;102244.09;;;8.41;90.94
71504;BME280;59323;50.874;7.028;2023-02-03T01:10:43;102242.38;;;8.45;90.70
71504;BME280;59323;50.874;7.028;2023-02-03T01:13:08;102239.69;;;8.45;90.91
71504;BME280;59323;50.874;7.028;2023-02-03T01:15:33;102228.63;;;8.42;91.19
71504;BME280;59323;50.874;7.028;2023-02-03T01:17:59;102235.78;;;8.38;90.99
71504;BME280;59323;50.874;7.028;2023-02-03T01:20:24;102234.06;;;8.42;90.86
71504;BME280;59323;50.874;7.028;2023-02-03T01:22:49;102227.03;;;8.41;90.90
71504;BME280;59323;50.874;7.028;2023-02-03T01:25:15;102236.97;;;8.45;90.81
71504;BME280;59323;50.874;7.028;2023-02-03T01:27:40;102239.84;;;8.49;90.44
71504;BME280;59323;50.874;7.028;2023-02-03T01:30:06;102251.66;;;8.53;90.38
71504;BME280;59323;50.874;7.028;2023-02-03T01:32:31;102257.22;;;8.48;90.14
71504;BME280;59323;50.874;7.028;2023-02-03T01:34:57;102267.75;;;8.49;90.61
71504;BME280;59323;50.874;7.028;2023-02-03T01:37:22;102279.19;;;8.46;90.84
71504;BME280;59323;50.874;7.028;2023-02-03T01:39:47;102277.28;;;8.47;90.39
71504;BME280;59323;50.874;7.028;2023-02-03T01:42:14;102277.88;;;8.44;90.82
71504;BME280;59323;50.874;7.028;2023-02-03T01:44:41;102274.59;;;8.47;90.67
71504;BME280;59323;50.874;7.028;2023-02-03T01:49:46;102277.28;;;8.47;91.03
71504;BME280;59323;50.874;7.028;2023-02-03T01:52:13;102272.97;;;8.46;91.20
71504;BME280;59323;50.874;7.028;2023-02-03T01:54:42;102279.00;;;8.43;91.19
71504;BME280;59323;50.874;7.028;2023-02-03T01:57:31;102292.31;;;8.53;90.20
71504;BME280;59323;50.874;7.028;2023-02-03T01:59:58;102286.88;;;8.53;90.50
71504;BME280;59323;50.874;7.028;2023-02-03T02:02:25;102285.94;;;8.57;90.13
71504;BME280;59323;50.874;7.028;2023-02-03T02:05:15;102296.97;;;8.61;89.79
71504;BME280;59323;50.874;7.028;2023-02-03T02:07:43;102282.91;;;8.59;89.81
71504;BME280;59323;50.874;7.028;2023-02-03T02:10:09;102296.47;;;8.59;89.76
71504;BME280;59323;50.874;7.028;2023-02-03T02:12:35;102292.34;;;8.62;89.58
71504;BME280;59323;50.874;7.028;2023-02-03T02:15:01;102278.16;;;8.65;89.39
71504;BME280;59323;50.874;7.028;2023-02-03T02:17:57;102265.56;;;8.60;89.17
71504;BME280;59323;50.874;7.028;2023-02-03T02:20:58;102275.09;;;8.57;89.68
71504;BME280;59323;50.874;7.028;2023-02-03T02:23:56;102266.31;;;8.52;89.47
71504;BME280;59323;50.874;7.028;2023-02-03T02:26:56;102266.16;;;8.48;90.00
71504;BME280;59323;50.874;7.028;2023-02-03T02:35:16;102272.88;;;8.60;89.19
71504;BME280;59323;50.874;7.028;2023-02-03T02:43:43;102261.25;;;8.59;88.72
71504;BME280;59323;50.874;7.028;2023-02-03T02:46:23;102238.47;;;8.60;88.75
71504;BME280;59323;50.874;7.028;2023-02-03T02:48:58;102235.88;;;8.55;88.77
71504;BME280;59323;50.874;7.028;2023-02-03T02:51:28;102224.09;;;8.51;89.10
71504;BME280;59323;50.874;7.028;2023-02-03T02:53:58;102227.59;;;8.51;89.43
71504;BME280;59323;50.874;7.028;2023-02-03T02:56:26;102225.03;;;8.46;89.59
71504;BME280;59323;50.874;7.028;2023-02-03T02:58:53;102224.41;;;8.49;88.83
71504;BME280;59323;50.874;7.028;2023-02-03T03:01:21;102222.16;;;8.51;89.01
71504;BME280;59323;50.874;7.028;2023-02-03T03:03:46;102214.34;;;8.50;89.24
71504;BME280;59323;50.874;7.028;2023-02-03T03:06:22;102236.34;;;8.48;89.19
71504;BME280;59323;50.874;7.028;2023-02-03T03:08:54;102248.47;;;8.51;88.84
71504;BME280;59323;50.874;7.028;2023-02-03T03:11:24;102246.56;;;8.51;88.96
71504;BME280;59323;50.874;7.028;2023-02-03T03:13:52;102241.00;;;8.56;88.50
71504;BME280;59323;50.874;7.028;2023-02-03T03:16:26;102236.69;;;8.55;88.52
71504;BME280;59323;50.874;7.028;2023-02-03T03:19:04;102237.50;;;8.56;88.64
71504;BME280;59323;50.874;7.028;2023-02-03T03:21:34;102240.38;;;8.60;88.35
71504;BME280;59323;50.874;7.028;2023-02-03T03:24:04;102232.06;;;8.56;88.73
71504;BME280;59323;50.874;7.028;2023-02-03T03:26:54;102222.34;;;8.55;88.64
71504;BME280;59323;50.874;7.028;2023-02-03T03:29:39;102223.13;;;8.55;88.69
71504;BME280;59323;50.874;7.028;2023-02-03T03:32:05;102222.69;;;8.62;88.17
71504;BME280;59323;50.874;7.028;2023-02-03T03:34:31;102216.16;;;8.63;88.18
71504;BME280;59323;50.874;7.028;2023-02-03T03:42:08;102230.81;;;8.62;88.50
71504;BME280;59323;50.874;7.028;2023-02-03T03:44:50;102234.16;;;8.59;88.41
71504;BME280;59323;50.874;7.028;2023-02-03T03:47:23;102224.91;;;8.60;88.35
71504;BME280;59323;50.874;7.028;2023-02-03T03:49:50;102230.00;;;8.62;88.56
71504;BME280;59323;50.874;7.028;2023-02-03T03:52:22;102224.09;;;8.60;88.03
71504;BME280;59323;50.874;7.028;2023-02-03T03:54:50;102223.00;;;8.61;88.49
71504;BME280;59323;50.874;7.028;2023-02-03T03:57:22;102227.94;;;8.58;88.54
71504;BME280;59323;50.874;7.028;2023-02-03T03:59:50;102244.03;;;8.64;88.09
71504;BME280;59323;50.874;7.028;2023-02-03T04:02:17;102230.00;;;8.62;88.24
71504;BME280;59323;50.874;7.028;2023-02-03T04:04:44;102234.94;;;8.60;88.14
71504;BME280;59323;50.874;7.028;2023-02-03T04:07:12;102229.69;;;8.63;88.36
71504;BME280;59323;50.874;7.028;2023-02-03T04:09:37;102228.25;;;8.57;88.39
71504;BME280;59323;50.874;7.028;2023-02-03T04:12:04;102230.16;;;8.56;88.55
71504;BME280;59323;50.874;7.028;2023-02-03T04:14:33;102241.16;;;8.60;88.35
71504;BME280;59323;50.874;7.028;2023-02-03T04:16:59;102231.28;;;8.64;87.78
71504;BME280;59323;50.874;7.028;2023-02-03T04:19:25;102217.44;;;8.66;87.49
71504;BME280;59323;50.874;7.028;2023-02-03T04:21:51;102221.25;;;8.65;87.57
71504;BME280;59323;50.874;7.028;2023-02-03T04:24:16;102205.00;;;8.65;87.80
71504;BME280;59323;50.874;7.028;2023-02-03T04:26:42;102197.31;;;8.58;87.81
71504;BME280;59323;50.874;7.028;2023-02-03T04:29:07;102207.69;;;8.56;88.09
71504;BME280;59323;50.874;7.028;2023-02-03T04:31:33;102199.88;;;8.54;88.03
71504;BME280;59323;50.874;7.028;2023-02-03T04:33:58;102211.50;;;8.55;88.03
71504;BME280;59323;50.874;7.028;2023-02-03T04:36:23;102223.47;;;8.63;87.48
71504;BME280;59323;50.874;7.028;2023-02-03T04:38:49;102221.44;;;8.68;86.49
71504;BME280;59323;50.874;7.028;2023-02-03T04:41:15;102205.31;;;8.63;87.33
71504;BME280;59323;50.874;7.028;2023-02-03T04:43:40;102201.94;;;8.57;87.34
71504;BME280;59323;50.874;7.028;2023-02-03T04:46:05;102202.56;;;8.54;88.03
71504;BME280;59323;50.874;7.028;2023-02-03T04:48:31;102200.19;;;8.53;87.47
71504;BME280;59323;50.874;7.028;2023-02-03T04:51:04;102206.88;;;8.55;87.52
71504;BME280;59323;50.874;7.028;2023-02-03T04:53:31;102211.66;;;8.50;87.75
71504;BME280;59323;50.874;7.028;2023-02-03T04:55:56;102217.38;;;8.48;87.70
71504;BME280;59323;50.874;7.028;2023-02-03T04:58:21;102215.63;;;8.52;87.65
71504;BME280;59323;50.874;7.028;2023-02-03T05:00:47;102209.91;;;8.54;87.32
71504;BME280;59323;50.874;7.028;2023-02-03T05:03:12;102222.97;;;8.52;87.61
71504;BME280;59323;50.874;7.028;2023-02-03T05:05:37;102226.34;;;8.57;87.61
71504;BME280;59323;50.874;7.028;2023-02-03T05:08:03;102220.13;;;8.57;87.25
71504;BME280;59323;50.874;7.028;2023-02-03T05:10:28;102210.56;;;8.60;87.27
71504;BME280;59323;50.874;7.028;2023-02-03T05:12:54;102212.63;;;8.63;87.10
71504;BME280;59323;50.874;7.028;2023-02-03T05:15:19;102219.50;;;8.60;87.29
71504;BME280;59323;50.874;7.028;2023-02-03T05:17:45;102214.22;;;8.55;87.57
71504;BME280;59323;50.874;7.028;2023-02-03T05:20:11;102210.06;;;8.57;87.61
71504;BME280;59323;50.874;7.028;2023-02-03T05:22:36;102228.25;;;8.57;87.71
71504;BME280;59323;50.874;7.028;2023-02-03T05:25:02;102223.00;;;8.61;87.54
71504;BME280;59323;50.874;7.028;2023-02-03T05:27:28;102210.72;;;8.54;87.91
71504;BME280;59323;50.874;7.028;2023-02-03T05:29:53;102210.72;;;8.54;87.98
71504;BME280;59323;50.874;7.028;2023-02-03T05:32:18;102202.13;;;8.61;87.64
71504;BME280;59323;50.874;7.028;2023-02-03T05:34:43;102199.91;;;8.63;87.53
71504;BME280;59323;50.874;7.028;2023-02-03T05:37:09;102199.56;;;8.65;87.71
71504;BME280;59323;50.874;7.028;2023-02-03T05:39:34;102209.31;;;8.66;87.58
71504;BME280;59323;50.874;7.028;2023-02-03T05:41:59;102200.38;;;8.65;87.43
71504;BME280;59323;50.874;7.028;2023-02-03T05:44:27;102191.75;;;8.63;87.49
71504;BME280;59323;50.874;7.028;2023-02-03T05:46:55;102192.06;;;8.62;87.46
71504;BME280;59323;50.874;7.028;2023-02-03T05:49:20;102188.56;;;8.61;87.10
71504;BME280;59323;50.874;7.028;2023-02-03T05:51:48;102196.06;;;8.64;87.07
71504;BME280;59323;50.874;7.028;2023-02-03T05:54:15;102201.34;;;8.69;87.02
71504;BME280;59323;50.874;7.028;2023-02-03T05:56:41;102189.22;;;8.67;86.65
71504;BME280;59323;50.874;7.028;2023-02-03T05:59:06;102187.31;;;8.67;86.61
71504;BME280;59323;50.874;7.028;2023-02-03T06:01:33;102205.16;;;8.68;86.55
71504;BME280;59323;50.874;7.028;2023-02-03T06:03:59;102209.00;;;8.67;86.50
71504;BME280;59323;50.874;7.028;2023-02-03T06:06:24;102200.38;;;8.65;86.49
71504;BME280;59323;50.874;7.028;2023-02-03T06:08:51;102206.09;;;8.64;86.60
71504;BME280;59323;50.874;7.028;2023-02-03T06:11:20;102207.84;;;8.60;86.87
71504;BME280;59323;50.874;7.028;2023-02-03T06:13:48;102217.25;;;8.62;86.72
71504;BME280;59323;50.874;7.028;2023-02-03T06:16:14;102220.28;;;8.61;86.84
71504;BME280;59323;50.874;7.028;2023-02-03T06:18:39;102208.47;;;8.56;86.69
71504;BME280;59323;50.874;7.028;2023-02-03T06:21:04;102200.84;;;8.67;86.41
71504;BME280;59323;50.874;7.028;2023-02-03T06:23:30;102214.09;;;8.69;86.01
71504;BME280;59323;50.874;7.028;2023-02-03T06:25:55;102220.31;;;8.69;86.09
71504;BME280;59323;50.874;7.028;2023-02-03T06:28:21;102227.97;;;8.76;85.43
71504;BME280;59323;50.874;7.028;2023-02-03T06:30:49;102229.41;;;8.73;85.90
71504;BME280;59323;50.874;7.028;2023-02-03T06:33:15;102211.38;;;8.69;85.65
71504;BME280;59323;50.874;7.028;2023-02-03T06:35:40;102218.22;;;8.66;86.04
71504;BME280;59323;50.874;7.028;2023-02-03T06:38:05;102223.19;;;8.73;85.38
71504;BME280;59323;50.874;7.028;2023-02-03T06:40:31;102210.59;;;8.68;85.33
71504;BME280;59323;50.874;7.028;2023-02-03T06:42:56;102209.94;;;8.63;85.66
71504;BME280;59323;50.874;7.028;2023-02-03T06:45:21;102218.72;;;8.68;85.30
71504;BME280;59323;50.874;7.028;2023-02-03T06:47:48;102220.16;;;8.74;84.44
71504;BME280;59323;50.874;7.028;2023-02-03T06:50:14;102231.63;;;8.71;84.98
71504;BME280;59323;50.874;7.028;2023-02-03T06:52:40;102233.22;;;8.72;84.68
71504;BME280;59323;50.874;7.028;2023-02-03T06:55:06;102226.38;;;8.75;84.96
71504;BME280;59323;50.874;7.028;2023-02-03T06:57:32;102214.75;;;8.74;84.90
71504;BME280;59323;50.874;7.028;2023-02-03T06:59:57;102225.75;;;8.78;84.26
71504;BME280;59323;50.874;7.028;2023-02-03T07:02:22;102228.78;;;8.76;84.64
71504;BME280;59323;50.874;7.028;2023-02-03T07:04:48;102234.81;;;8.73;85.32
71504;BME280;59323;50.874;7.028;2023-02-03T07:07:13;102220.97;;;8.75;84.64
71504;BME280;59323;50.874;7.028;2023-02-03T07:09:39;102213.63;;;8.75;85.06
71504;BME280;59323;50.874;7.028;2023-02-03T07:12:05;102220.78;;;8.71;84.98
71504;BME280;59323;50.874;7.028;2023-02-03T07:14:31;102218.41;;;8.70;85.55
71504;BME280;59323;50.874;7.028;2023-02-03T07:16:58;102232.56;;;8.67;85.22
71504;BME280;59323;50.874;7.028;2023-02-03T07:19:23;102230.03;;;8.70;85.28
71504;BME280;59323;50.874;7.028;2023-02-03T07:21:49;102215.38;;;8.71;85.05
71504;BME280;59323;50.874;7.028;2023-02-03T07:24:14;102213.47;;;8.72;84.95
71504;BME280;59323;50.874;7.028;2023-02-03T07:26:39;102212.34;;;8.73;84.99
71504;BME280;59323;50.874;7.028;2023-02-03T07:29:05;102210.75;;;8.72;85.51
71504;BME280;59323;50.874;7.028;2023-02-03T07:31:31;102213.63;;;8.75;85.12
71504;BME280;59323;50.874;7.028;2023-02-03T07:33:56;102215.41;;;8.80;84.40
71504;BME280;59323;50.874;7.028;2023-02-03T07:36:22;102229.75;;;8.80;84.55
71504;BME280;59323;50.874;7.028;2023-02-03T07:38:49;102232.00;;;8.87;83.91
71504;BME280;59323;50.874;7.028;2023-02-03T07:41:14;102235.00;;;8.85;84.39
71504;BME280;59323;50.874;7.028;2023-02-03T07:43:39;102235.19;;;8.98;83.30
71504;BME280;59323;50.874;7.028;2023-02-03T07:46:05;102241.09;;;8.91;84.01
71504;BME280;59323;50.874;7.028;2023-02-03T07:48:31;102239.66;;;8.94;83.99
71504;BME280;59323;50.874;7.028;2023-02-03T07:50:56;102232.97;;;8.91;84.39
71504;BME280;59323;50.874;7.028;2023-02-03T07:53:21;102229.94;;;8.93;83.70
71504;BME280;59323;50.874;7.028;2023-02-03T07:55:47;102237.75;;;8.94;84.39
71504;BME280;59323;50.874;7.028;2023-02-03T07:58:12;102233.28;;;8.98;83.70
71504;BME280;59323;50.874;7.028;2023-02-03T08:00:37;102244.44;;;8.97;83.60
71504;BME280;59323;50.874;7.028;2023-02-03T08:03:03;102242.06;;;8.95;83.84
71504;BME280;59323;50.874;7.028;2023-02-03T08:05:28;102239.66;;;8.94;84.26
71504;BME280;59323;50.874;7.028;2023-02-03T08:07:54;102247.00;;;9.02;83.67
71504;BME280;59323;50.874;7.028;2023-02-03T08:10:20;102243.34;;;8.98;83.90
71504;BME280;59323;50.874;7.028;2023-02-03T08:12:45;102248.59;;;9.03;83.30
71504;BME280;59323;50.874;7.028;2023-02-03T08:15:11;102241.91;;;9.00;84.19
71504;BME280;59323;50.874;7.028;2023-02-03T08:17:37;102242.06;;;9.04;83.58
71504;BME280;59323;50.874;7.028;2023-02-03T08:20:09;102241.75;;;9.05;83.49
71504;BME280;59323;50.874;7.028;2023-02-03T08:22:35;102241.28;;;9.03;83.64
71504;BME280;59323;50.874;7.028;2023-02-03T08:25:00;102239.53;;;9.07;83.82
71504;BME280;59323;50.874;7.028;2023-02-03T08:27:25;102233.94;;;9.04;83.99
71504;BME280;59323;50.874;7.028;2023-02-03T08:29:51;102237.59;;;9.08;83.59
71504;BME280;59323;50.874;7.028;2023-02-03T08:32:18;102242.09;;;9.12;83.27
71504;BME280;59323;50.874;7.028;2023-02-03T08:34:45;102245.75;;;9.08;83.60
71504;BME280;59323;50.874;7.028;2023-02-03T08:37:12;102249.56;;;9.07;83.75
71504;BME280;59323;50.874;7.028;2023-02-03T08:39:38;102258.38;;;9.12;83.65
71504;BME280;59323;50.874;7.028;2023-02-03T08:42:04;102256.94;;;9.15;83.14
71504;BME280;59323;50.874;7.028;2023-02-03T08:44:31;102269.72;;;9.23;82.70
71504;BME280;59323;50.874;7.028;2023-02-03T08:46:56;102272.44;;;9.23;82.95
71504;BME280;59323;50.874;7.028;2023-02-03T08:49:22;102275.78;;;9.20;83.03
71504;BME280;59323;50.874;7.028;2023-02-03T08:51:49;102267.31;;;9.21;83.19
71504;BME280;59323;50.874;7.028;2023-02-03T08:54:16;102279.63;;;9.28;82.53
71504;BME280;59323;50.874;7.028;2023-02-03T08:56:42;102286.78;;;9.24;83.01
71504;BME280;59323;50.874;7.028;2023-02-03T08:59:07;102285.38;;;9.26;82.94
71504;BME280;59323;50.874;7.028;2023-02-03T09:01:33;102280.25;;;9.16;84.10
71504;BME280;59323;50.874;7.028;2023-02-03T09:03:58;102281.84;;;9.17;84.29
71504;BME280;59323;50.874;7.028;2023-02-03T09:06:26;102274.34;;;9.14;84.28
71504;BME280;59323;50.874;7.028;2023-02-03T09:08:54;102267.47;;;9.16;84.40
71504;BME280;59323;50.874;7.028;2023-02-03T09:11:19;102270.34;;;9.11;84.88
71504;BME280;59323;50.874;7.028;2023-02-03T09:13:45;102279.59;;;9.10;84.90
71504;BME280;59323;50.874;7.028;2023-02-03T09:16:16;102273.81;;;9.03;85.57
71504;BME280;59323;50.874;7.028;2023-02-03T09:18:42;102275.72;;;9.03;85.48
71504;BME280;59323;50.874;7.028;2023-02-03T09:21:09;102288.97;;;9.04;85.19
71504;BME280;59323;50.874;7.028;2023-02-03T09:23:37;102277.97;;;9.09;85.04
71504;BME280;59323;50.874;7.028;2023-02-03T09:26:04;102275.09;;;9.06;85.23
71504;BME280;59323;50.874;7.028;2023-02-03T09:28:30;102284.50;;;9.08;85.55
71504;BME280;59323;50.874;7.028;2023-02-03T09:31:04;102274.59;;;9.04;86.09
71504;BME280;59323;50.874;7.028;2023-02-03T09:33:30;102274.97;;;9.11;85.89
71504;BME280;59323;50.874;7.028;2023-02-03T09:35:56;102269.66;;;9.06;86.19
71504;BME280;59323;50.874;7.028;2023-02-03T09:38:22;102278.91;;;9.05;86.57
71504;BME280;59323;50.874;7.028;2023-02-03T09:40:51;102275.41;;;9.04;86.54
71504;BME280;59323;50.874;7.028;2023-02-03T09:43:40;102280.50;;;9.06;86.42
71504;BME280;59323;50.874;7.028;2023-02-03T09:48:42;102261.03;;;9.04;87.00
71504;BME280;59323;50.874;7.028;2023-02-03T09:51:25;102256.41;;;9.04;86.83
71504;BME280;59323;50.874;7.028;2023-02-03T09:54:17;102262.47;;;9.01;87.07
71504;BME280;59323;50.874;7.028;2023-02-03T09:56:44;102253.38;;;8.97;87.20
71504;BME280;59323;50.874;7.028;2023-02-03T09:59:17;102253.38;;;8.97;87.69
71504;BME280;59323;50.874;7.028;2023-02-03T10:02:06;102275.88;;;8.98;87.97
71504;BME280;59323;50.874;7.028;2023-02-03T10:04:38;102266.00;;;9.02;87.90
71504;BME280;59323;50.874;7.028;2023-02-03T10:07:17;102265.03;;;9.06;87.39
71504;BME280;59323;50.874;7.028;2023-02-03T10:15:02;102288.47;;;9.02;88.16
71504;BME280;59323;50.874;7.028;2023-02-03T10:17:37;102285.13;;;8.97;88.75
71504;BME280;59323;50.874;7.028;2023-02-03T10:22:42;102299.50;;;9.06;88.76
71504;BME280;59323;50.874;7.028;2023-02-03T10:27:37;102292.94;;;8.98;89.77
71504;BME280;59323;50.874;7.028;2023-02-03T10:30:10;102317.34;;;8.98;90.55
71504;BME280;59323;50.874;7.028;2023-02-03T10:32:41;102317.16;;;8.95;90.52
71504;BME280;59323;50.874;7.028;2023-02-03T10:35:12;102318.41;;;8.88;91.38
71504;BME280;59323;50.874;7.028;2023-02-03T10:37:44;102309.66;;;8.92;91.97
71504;BME280;59323;50.874;7.028;2023-02-03T10:40:13;102303.28;;;8.87;92.71
71504;BME280;59323;50.874;7.028;2023-02-03T10:42:41;102284.13;;;8.84;93.39
71504;BME280;59323;50.874;7.028;2023-02-03T10:45:25;102290.19;;;8.81;94.49
71504;BME280;59323;50.874;7.028;2023-02-03T10:47:52;102294.16;;;8.83;94.55
71504;BME280;59323;50.874;7.028;2023-02-03T10:50:26;102295.28;;;8.82;94.95
71504;BME280;59323;50.874;7.028;2023-02-03T10:53:24;102291.47;;;8.83;95.39
71504;BME280;59323;50.874;7.028;2023-02-03T10:55:59;102295.91;;;8.79;95.46
71504;BME280;59323;50.874;7.028;2023-02-03T10:58:28;102284.13;;;8.84;95.57
71504;BME280;59323;50.874;7.028;2023-02-03T11:01:05;102274.72;;;8.81;95.60
71504;BME280;59323;50.874;7.028;2023-02-03T11:03:31;102268.50;;;8.81;96.04
71504;BME280;59323;50.874;7.028;2023-02-03T11:06:18;102265.63;;;8.86;95.38
71504;BME280;59323;50.874;7.028;2023-02-03T11:08:46;102273.94;;;8.89;95.24
71504;BME280;59323;50.874;7.028;2023-02-03T11:11:14;102278.88;;;8.87;95.03
71504;BME280;59323;50.874;7.028;2023-02-03T11:13:40;102276.16;;;8.87;95.36
71504;BME280;59323;50.874;7.028;2023-02-03T11:16:11;102280.94;;;8.90;95.09
71504;BME280;59323;50.874;7.028;2023-02-03T11:24:27;102269.00;;;8.92;95.34
71504;BME280;59323;50.874;7.028;2023-02-03T11:26:41;102270.59;;;8.93;95.17
71504;BME280;59323;50.874;7.028;2023-02-03T11:29:16;102276.34;;;9.00;95.14
71504;BME280;59323;50.874;7.028;2023-02-03T11:31:47;102275.25;;;9.01;94.72
71504;BME280;59323;50.874;7.028;2023-02-03T11:34:16;102257.84;;;9.02;94.94
71504;BME280;59323;50.874;7.028;2023-02-03T11:36:42;102260.09;;;9.00;94.72
71504;BME280;59323;50.874;7.028;2023-02-03T11:39:16;102265.19;;;9.01;94.63
71504;BME280;59323;50.874;7.028;2023-02-03T11:41:44;102259.63;;;9.06;94.27
71504;BME280;59323;50.874;7.028;2023-02-03T11:46:48;102271.25;;;9.07;94.89
71504;BME280;59323;50.874;7.028;2023-02-03T11:49:48;102276.06;;;9.10;94.11
71504;BME280;59323;50.874;7.028;2023-02-03T12:06:40;102279.59;;;9.19;93.57
71504;BME280;59323;50.874;7.028;2023-02-03T12:12:25;102278.34;;;9.25;93.18
71504;BME280;59323;50.874;7.028;2023-02-03T12:22:34;102264.78;;;9.34;91.77
71504;BME280;59323;50.874;7.028;2023-02-03T12:25:17;102263.50;;;9.31;92.39
71504;BME280;59323;50.874;7.028;2023-02-03T12:30:33;102267.66;;;9.37;91.90
71504;BME280;59323;50.874;7.028;2023-02-03T12:33:04;102263.50;;;9.40;91.55
71504;BME280;59323;50.874;7.028;2023-02-03T12:35:35;102262.72;;;9.39;91.46
71504;BME280;59323;50.874;7.028;2023-02-03T12:38:09;102265.44;;;9.39;91.38
71504;BME280;59323;50.874;7.028;2023-02-03T12:40:42;102264.94;;;9.37;92.37
71504;BME280;59323;50.874;7.028;2023-02-03T12:43:29;102262.22;;;9.37;91.71
71504;BME280;59323;50.874;7.028;2023-02-03T12:46:11;102260.78;;;9.40;91.84
71504;BME280;59323;50.874;7.028;2023-02-03T12:48:56;102265.91;;;9.41;92.18
71504;BME280;59323;50.874;7.028;2023-02-03T12:51:30;102272.44;;;9.40;91.83
71504;BME280;59323;50.874;7.028;2023-02-03T12:54:05;102282.81;;;9.38;92.04
71504;BME280;59323;50.874;7.028;2023-02-03T12:56:41;102276.75;;;9.41;91.63
71504;BME280;59323;50.874;7.028;2023-02-03T12:59:15;102271.81;;;9.43;91.68
71504;BME280;59323;50.874;7.028;2023-02-03T13:01:53;102260.00;;;9.48;91.19
71504;BME280;59323;50.874;7.028;2023-02-03T13:04:37;102265.09;;;9.49;91.42
71504;BME280;59323;50.874;7.028;2023-02-03T13:07:15;102265.09;;;9.49;91.21
71504;BME280;59323;50.874;7.028;2023-02-03T13:09:58;102264.63;;;9.47;91.52
71504;BME280;59323;50.874;7.028;2023-02-03T13:12:31;102263.03;;;9.46;91.72
71504;BME280;59323;50.874;7.028;2023-02-03T13:17:52;102261.75;;;9.52;91.27
71504;BME280;59323;50.874;7.028;2023-02-03T13:20:26;102279.97;;;9.52;91.46
71504;BME280;59323;50.874;7.028;2023-02-03T13:22:53;102272.59;;;9.52;91.27
71504;BME280;59323;50.874;7.028;2023-02-03T13:25:24;102265.59;;;9.51;91.91
71504;BME280;59323;50.874;7.028;2023-02-03T13:28:08;102270.06;;;9.47;92.04
71504;BME280;59323;50.874;7.028;2023-02-03T13:38:36;102266.06;;;9.45;92.93
71504;BME280;59323;50.874;7.028;2023-02-03T13:41:07;102256.50;;;9.39;93.98
71504;BME280;59323;50.874;7.028;2023-02-03T13:43:38;102254.56;;;9.39;94.60
71504;BME280;59323;50.874;7.028;2023-02-03T13:46:07;102260.63;;;9.36;94.93
71504;BME280;59323;50.874;7.028;2023-02-03T13:48:35;102260.63;;;9.28;96.03
71504;BME280;59323;50.874;7.028;2023-02-03T13:51:05;102272.44;;;9.32;95.83
71504;BME280;59323;50.874;7.028;2023-02-03T13:53:36;102274.50;;;9.26;96.75
71504;BME280;59323;50.874;7.028;2023-02-03T13:56:07;102273.22;;;9.24;97.04
71504;BME280;59323;50.874;7.028;2023-02-03T13:58:40;102285.19;;;9.23;97.39
71504;BME280;59323;50.874;7.028;2023-02-03T14:01:30;102276.09;;;9.18;97.50
71504;BME280;59323;50.874;7.028;2023-02-03T14:03:58;102271.78;;;9.17;98.12
71504;BME280;59323;50.874;7.028;2023-02-03T14:09:19;102263.59;;;9.09;98.90
71504;BME280;59323;50.874;7.028;2023-02-03T14:11:45;102264.91;;;9.11;99.27
71504;BME280;59323;50.874;7.028;2023-02-03T14:16:38;102275.72;;;9.03;99.83
71504;BME280;59323;50.874;7.028;2023-02-03T14:19:08;102285.31;;;9.09;100.00
71504;BME280;59323;50.874;7.028;2023-02-03T14:21:48;102284.97;;;9.02;100.00
71504;BME280;59323;50.874;7.028;2023-02-03T14:24:16;102279.72;;;9.05;100.00
71504;BME280;59323;50.874;7.028;2023-02-03T14:29:31;102290.41;;;9.02;100.00
71504;BME280;59323;50.874;7.028;2023-02-03T14:31:58;102286.56;;;9.03;100.00
71504;BME280;59323;50.874;7.028;2023-02-03T14:34:36;102296.63;;;9.02;100.00
71504;BME280;59323;50.874;7.028;2023-02-03T14:37:11;102293.91;;;9.02;100.00